Sugar Bowl, California Weather observations

Data are for observation ending at time listed.
 Day   Time    Ave.   Ave.  Ave.  Vector   Max.   Stn.    Total    Solar   Ave.   Snow 
  of    of     Air    Rel.  Wind   Wind    Wind   Baro.  Precip.   Rad.    Soil   Depth
Year   Day     Temp.  Hum.  Speed  Dir.    Gust   Pres.                    Temp.       
2014   (PST)    F      %     mph   deg.    mph     mb.     in.     W/m2     F      in. 
---------------------------------------------------------------------------------------  
 331    6:20   47.0    31    3.8   339     10.3   794.0    0.00       0    999.0    2.8
 331    6:30   47.5    29    4.2   329     12.9   794.0    0.00       0    999.0    2.8
 331    6:40   47.5    29    3.6   338     15.8   794.0    0.00       0    999.0    3.0
 331    6:50   47.5    29    3.5   328     12.9   794.0    0.00       0    999.0    2.9
 331    7:00   47.4    29    3.9   331     12.2   794.0    0.00       1    999.0    2.6
 331    7:10   47.5    29    4.0   331     13.1   794.0    0.00       2    999.0    2.8
 331    7:20   47.4    28    3.9   315     15.6   794.1    0.00       6    999.0    2.4
 331    7:30   47.4    28    3.2   329     11.3   794.1    0.00      12    999.0    2.6
 331    7:40   47.3    28    3.8   323     12.6   794.1    0.00      17    999.0    2.7
 331    7:50   46.9    29    3.2   320     12.4   794.1    0.00      21    999.0    2.6
 331    8:00   47.0    29    3.1   321     11.5   794.2    0.00      26    999.0    2.5
 331    8:10   45.8    33    1.5   304      4.1   794.2    0.00      30    999.0    2.4
 331    8:20   45.7    32    1.7   309      8.3   794.2    0.00      48    999.0    2.4
 331    8:30   46.8    30    2.3   303     10.4   794.2    0.00      55    999.0    2.2
 331    8:40   47.9    30    2.0   318      5.4   794.3    0.00     103    999.0    2.4
 331    8:50   48.0    29    2.0   326      6.8   794.3    0.00      67    999.0    2.6
 331    9:00   48.7    28    2.7   325     12.6   794.3    0.00     225    999.0    2.5
 331    9:10   49.8    26    3.7   318     14.7   794.4    0.00     325    999.0    2.3
 331    9:20   50.5    26    3.1   303     12.4   794.4    0.00     368    999.0    2.3
 331    9:30   51.0    25    3.3   337      9.9   794.3    0.00     318    999.0    2.5
 331    9:40   51.2    24    4.5   329     12.7   794.3    0.00     341    999.0    2.8
 331    9:50   52.0    24    3.3   339     13.7   794.2    0.00     445    999.0    3.0
 331   10:00   52.3    23    3.4   319     12.7   794.2    0.00     436    999.0    2.6
 331   10:10   52.8    22    3.2   329     12.5   794.1    0.00     470    999.0    3.1
 331   10:20   53.1    20    4.7   322     16.9   794.0    0.00     505    999.0    3.1
 331   10:30   53.2    19    5.5   328     29.0   793.9    0.00     529    999.0    3.2
 331   10:40   53.3    20    5.3   318     19.8   793.8    0.00     547    999.0    2.5
 331   10:50   53.5    20    6.1   323     15.4   793.7    0.00     560    999.0    3.2
 331   11:00   53.6    20    5.3   329     18.8   793.6    0.00     541    999.0    3.3
 331   11:10   53.6    20    6.0   312     17.0   793.5    0.00     534    999.0    3.7
 331   11:20   53.7    20    5.9   321     19.1   793.3    0.00     549    999.0    3.5
 331   11:30   54.0    20    5.0   324     17.0   793.3    0.00     538    999.0    2.3
 331   11:40   54.2    20    5.1   313     22.8   793.2    0.00     561    999.0    2.2
 331   11:50   54.5    20    4.7   320     12.6   793.0    0.00     569    999.0    2.3
 331   12:00   54.7    19    4.7   321     18.7   792.9    0.00     572    999.0    2.4
 331   12:10   54.5    19    5.9   325     25.2   792.7    0.00     500    999.0    2.6
 331   12:20   54.3    18    5.9   320     30.2   792.7    0.00     483    999.0    2.8
 331   12:30   54.0    18    6.3   316     28.4   792.5    0.00     418    999.0    3.1
 331   12:40   53.7    18    6.5   306     32.7   792.5    0.00     416    999.0    3.2
 331   12:50   53.6    19    6.3   317     23.8   792.5    0.00     415    999.0    3.2
 331   13:00   53.7    19    6.2   314     23.0   792.4    0.00     444    999.0    3.3
 331   13:10   53.7    19    6.8   316     29.9   792.3    0.00     463    999.0    2.0
 331   13:20   53.4    20    7.3   312     24.4   792.2    0.00     424    999.0    1.7
 331   13:30   53.0    22    7.4   307     25.1   792.0    0.00     163    999.0    2.7
 331   13:40   52.6    23    6.7   322     16.1   791.9    0.00     105    999.0    2.7
 331   13:50   52.2    24    5.8   330     18.8   791.8    0.00      98    999.0    3.8
 331   14:00   52.0    24    5.4   324     16.7   791.8    0.00     129    999.0    3.3
 331   14:10   52.0    24    6.0   316     25.2   791.7    0.00     108    999.0    2.7
 331   14:20   52.1    24    5.9   330     21.6   791.7    0.00     104    999.0    2.7
 331   14:30   52.2    23    5.9   321     27.0   791.7    0.00      87    999.0    2.6
 331   14:40   52.1    23    5.6   322     15.2   791.6    0.00      96    999.0    4.0
 331   14:50   52.2    23    4.3   326     19.4   791.6    0.00     110    999.0    3.4
 331   15:00   51.9    23    5.0   322     20.3   791.5    0.00     105    999.0    3.1
 331   15:10   51.3    24    4.4   327     13.5   791.4    0.00      58    999.0    3.0
 331   15:20   50.9    24    5.0   324     31.0   791.4    0.00      37    999.0    3.0
 331   15:30   50.8    24    6.2   324     17.0   791.4    0.00      32    999.0    2.4
 331   15:40   50.6    23    6.1   333     25.1   791.3    0.00      28    999.0    2.2
 331   15:50   50.5    23    4.9   331     13.4   791.2    0.00      22    999.0    3.6
 331   16:00   50.2    23    5.0   326     13.6   791.2    0.00      13    999.0    2.9
 331   16:10   50.3    23    4.1   341     16.2   791.1    0.00       9    999.0    2.9
 331   16:20   49.9    24    4.3   332     24.5   791.1    0.00       7    999.0    1.8
 331   16:30   49.3    27    3.4   355     12.3   791.1    0.00       5    999.0    3.5
 331   16:40   48.8    29    3.1    12     11.8   791.0    0.00       3    999.0    2.2
 331   16:50   48.5    29    3.2     0     10.7   791.0    0.00       2    999.0    2.3
 331   17:00   48.3    29    3.6   342     16.7   791.0    0.00       1    999.0    2.1
 331   17:10   48.1    30    3.0   356     12.5   791.0    0.00       0    999.0    2.4
 331   17:20   47.2    32    2.5     1     11.4   791.0    0.00       0    999.0    2.6
 331   17:30   46.6    33    2.1    74      9.1   791.0    0.00       0    999.0    2.4
 331   17:40   46.3    35    2.3    36     11.2   790.9    0.00       0    999.0    2.1
 331   17:50   45.8    36    2.1    34      8.4   790.8    0.00       0    999.0    2.3
 331   18:00   45.7    36    2.0   121      9.1   790.8    0.00       0    999.0    2.1
 331   18:10   45.6    36    2.1   130      8.3   790.7    0.00       0    999.0    2.2
 331   18:20   45.1    38    2.2    86      6.7   790.7    0.00       0    999.0    2.4
 331   18:30   44.8    38    1.9    30      7.2   790.7    0.00       0    999.0    2.5
 331   18:40   44.9    38    2.1    62      8.9   790.6    0.00       0    999.0    2.6
 331   18:50   44.7    38    2.5    85      8.0   790.7    0.00       0    999.0    2.9
 331   19:00   44.7    38    2.2    68     10.8   790.6    0.00       0    999.0    2.5
 331   19:10   45.1    36    2.6    46     13.2   790.6    0.00       0    999.0    2.0
 331   19:20   44.7    36    3.0    97      9.7   790.5    0.00       0    999.0    2.3
 331   19:30   44.0    36    2.6    83     13.5   790.5    0.00       0    999.0    2.2
 331   19:40   44.5    33    2.1    48      6.9   790.5    0.00       0    999.0    2.4
 331   19:50   44.5    32    2.6   346     10.2   790.5    0.00       0    999.0    2.5
 331   20:00   44.4    31    2.7   357      7.2   790.5    0.00       0    999.0    2.7
 331   20:10   45.2    29    3.3   345     14.0   790.4    0.00       0    999.0    2.7
 331   20:20   45.1    29    3.1   355     13.9   790.4    0.00       0    999.0    2.1
 331   20:30   44.5    30    2.9    20     11.0   790.3    0.00       0    999.0    2.7
 331   20:40   44.0    31    2.5    47     10.7   790.4    0.00       0    999.0    2.8
 331   20:50   43.7    30    3.1   358     10.3   790.3    0.00       0    999.0    3.3
 331   21:00   44.5    27    4.2   340     13.4   790.3    0.00       0    999.0    2.3
 331   21:10   44.5    27    3.6   343     16.1   790.3    0.00       0    999.0    2.6
 331   21:20   44.7    26    4.0   347     13.9   790.3    0.00       0    999.0    2.8
 331   21:30   44.8    26    4.9   338     22.4   790.3    0.00       0    999.0    3.3
 331   21:40   44.7    27    4.8   339     13.9   790.2    0.00       0    999.0    2.8
 331   21:50   44.7    27    5.3   349     16.0   790.2    0.00       0    999.0    2.6
 331   22:00   44.5    28    4.8   327     19.6   790.2    0.00       0    999.0    3.0
 331   22:10   44.2    28    4.3   342     15.1   790.1    0.00       0    999.0    2.8
 331   22:20   44.0    29    4.4   350     13.1   790.1    0.00       0    999.0    2.7
 331   22:30   44.0    30    3.6   343     13.4   790.1    0.00       0    999.0    3.0
 331   22:40   43.8    30    4.3   333     13.3   790.0    0.00       0    999.0    2.7
 331   22:50   44.0    30    4.9   345     22.5   790.0    0.00       0    999.0    2.5
 331   23:00   43.9    30    3.8   343     15.1   790.0    0.00       0    999.0    2.6
 331   23:10   43.5    31    3.6   331     12.3   790.0    0.00       0    999.0    2.7
 331   23:20   43.5    30    4.0   333     11.0   790.0    0.00       0    999.0    2.8
 331   23:30   43.4    31    3.5   339     10.6   790.0    0.00       0    999.0    2.8
 331   23:40   43.0    32    3.1   343      8.7   789.9    0.00       0    999.0    2.9
 331   23:50   43.2    31    3.0   346     11.4   789.9    0.00       0    999.0    2.9
 332    0:00   43.1    31    2.5    29     10.0   789.9    0.00       0    999.0    2.9
 332    0:10   42.8    31    2.6    10      6.7   789.8    0.00       0    999.0    2.9
 332    0:20   42.5    32    2.0    77      9.9   789.7    0.00       0    999.0    2.9
 332    0:30   42.2    32    3.8    82     14.0   789.6    0.00       0    999.0    3.0
 332    0:40   42.5    32    4.4    85     15.3   789.6    0.00       0    999.0    3.1
 332    0:50   42.4    31    1.9    56      8.0   789.5    0.00       0    999.0    3.7
 332    1:00   42.6    30    2.3    16      7.1   789.4    0.00       0    999.0    2.9
 332    1:10   42.8    28    3.0   354     15.6   789.3    0.00       0    999.0    3.0
 332    1:20   43.3    26    3.6   360     16.6   789.3    0.00       0    999.0    3.2
 332    1:30   43.4    25    4.0   344     12.6   789.2    0.00       0    999.0    2.7
 332    1:40   43.6    24    4.8   336     12.4   789.2    0.00       0    999.0    3.1
 332    1:50   43.6    22    3.3   340     14.9   789.2    0.00       0    999.0    3.0
 332    2:00   43.5    20    3.6   336     26.9   789.2    0.00       0    999.0    3.1
 332    2:10   43.7    18    4.0   347     23.2   789.1    0.00       0    999.0    2.7
 332    2:20   43.5    18    3.3    14     15.9   789.1    0.00       0    999.0    3.0
 332    2:30   43.2    17    2.9    26     16.4   789.0    0.00       0    999.0    3.6
 332    2:40   43.7    14    3.2   349     12.6   789.0    0.00       0    999.0    4.1
 332    2:50   43.8    13    3.5   344     13.0   788.9    0.00       0    999.0    3.7
 332    3:00   43.8    13    4.3   334     16.6   788.8    0.00       0    999.0    3.1
 332    3:10   43.7    13    3.6   348     11.8   788.7    0.00       0    999.0    3.7
 332    3:20   43.6    12    3.8   345     12.2   788.6    0.00       0    999.0    3.6
 332    3:30   43.9    11    5.2   337     27.2   788.5    0.00       0    999.0    2.9
 332    3:40   43.8    12    3.9   346     12.4   788.4    0.00       0    999.0    5.0
 332    3:50   43.6    12    2.7   356     11.0   788.3    0.00       0    999.0    3.8
 332    4:00   43.0    12    3.3    37     12.9   788.2    0.00       0    999.0    3.8
 332    4:10   42.9    12    2.7     6      9.3   788.2    0.00       0    999.0    3.1
 332    4:20   43.2    12    3.0   351     12.6   788.1    0.00       0    999.0    3.3
 332    4:30   43.4    11    3.8    12     14.0   788.1    0.00       0    999.0    3.1
 332    4:40   43.2    12    3.3    16      8.9   787.9    0.00       0    999.0    3.1
 332    4:50   43.1    12    3.0    24     12.9   787.8    0.00       0    999.0    3.9
 332    5:00   42.8    12    3.7    28     13.7   787.8    0.00       0    999.0    4.4
 332    5:10   43.1    12    3.8     5     13.2   787.8    0.00       0    999.0    2.6
 332    5:20   43.0    12    3.2    20      9.6   787.8    0.00       0    999.0    3.5
 332    5:30   43.2    11    3.7   350     21.0   787.8    0.00       0    999.0    3.1
 332    5:40   43.0    12    2.9    16     11.5   787.7    0.00       0    999.0    3.7
 332    5:50   42.2    12    2.3    30      7.3   787.7    0.00       0    999.0    3.3
 332    6:00   42.2    12    2.8    23     13.5   787.7    0.00       0    999.0    3.9
 332    6:10   42.1    12    2.7    43      8.7   787.6    0.00       0    999.0    3.6

Return to Sugar Bowl graphs page.


Western Regional Climate Center,wrcc@dri.edu